Time;durP1;ratioP1;P1;durP2;ratioP2;P2;SDS_P1;SDS_P2;PMS_P1;PMS_P2;Temp;Humidity;BMP_temperature;BMP_pressure;BME280_temperature;BME280_humidity;BME280_pressure;Samples;Min_cycle;Max_cycle;Signal;HPM_P1;HPM_P2
2024/01/28 00:00:14;;;;;;;8.43;3.50;;;;;;;;;;687396;28;1200;-64
2024/01/28 00:00:35;;;;;;;7.72;3.60;;;;;;;;;;684200;28;1125;-63
2024/01/28 00:00:56;;;;;;;8.77;3.47;;;;;;;;;;684657;28;881;-63
2024/01/28 00:01:16;;;;;;;8.13;3.50;;;;;;;;;;683172;28;4341;-65
2024/01/28 00:01:36;;;;;;;8.90;3.53;;;;;;;;;;684173;28;1276;-64
2024/01/28 00:01:57;;;;;;;7.67;3.20;;;;;;;;;;685608;28;766;-64
2024/01/28 00:02:17;;;;;;;7.97;3.30;;;;;;;;;;687655;28;877;-64
2024/01/28 00:02:38;;;;;;;8.23;3.22;;;;;;;;;;684524;28;948;-63
2024/01/28 00:02:58;;;;;;;8.97;3.40;;;;;;;;;;688819;28;1460;-65
2024/01/28 00:03:20;;;;;;;8.18;3.33;;;;;;;;;;688931;28;1429;-68
2024/01/28 00:03:40;;;;;;;8.27;3.35;;;;;;;;;;686891;28;1050;-62
2024/01/28 00:04:01;;;;;;;8.15;3.00;;;;;;;;;;687604;28;906;-62
2024/01/28 00:04:21;;;;;;;7.43;2.93;;;;;;;;;;687288;28;4346;-64
2024/01/28 00:04:42;;;;;;;9.17;3.50;;;;;;;;;;687350;28;1412;-66
2024/01/28 00:05:03;;;;;;;8.00;3.50;;;;;;;;;;688032;28;778;-64
2024/01/28 00:05:24;;;;;;;6.97;3.05;;;;;;;;;;687358;28;874;-63
2024/01/28 00:05:44;;;;;;;8.33;3.30;;;;;;;;;;686095;28;855;-64
2024/01/28 00:06:05;;;;;;;9.23;3.50;;;;;;;;;;687954;28;1066;-64
2024/01/28 00:06:26;;;;;;;6.43;3.10;;;;;;;;;;687896;28;1302;-63
2024/01/28 00:06:46;;;;;;;6.80;3.38;;;;;;;;;;687172;28;1042;-63
2024/01/28 00:07:07;;;;;;;8.70;3.37;;;;;;;;;;686991;28;4286;-63
2024/01/28 00:07:28;;;;;;;9.10;3.63;;;;;;;;;;683479;28;806;-64
2024/01/28 00:07:49;;;;;;;8.48;3.10;;;;;;;;;;683963;28;1457;-67
2024/01/28 00:08:10;;;;;;;7.90;3.10;;;;;;;;;;685095;28;837;-63
2024/01/28 00:08:32;;;;;;;8.43;3.22;;;;;;;;;;683491;28;1653;-67
2024/01/28 00:08:53;;;;;;;8.02;3.10;;;;;;;;;;681166;29;822;-64
2024/01/28 00:09:15;;;;;;;9.70;3.20;;;;;;;;;;681976;29;1028;-63
2024/01/28 00:09:36;;;;;;;9.27;3.08;;;;;;;;;;679696;28;1287;-65
2024/01/28 00:09:57;;;;;;;8.20;3.40;;;;;;;;;;685259;28;1248;-65
2024/01/28 00:10:17;;;;;;;7.90;3.60;;;;;;;;;;686443;28;4361;-65
2024/01/28 00:10:38;;;;;;;8.67;3.27;;;;;;;;;;690279;28;1008;-64
2024/01/28 00:10:58;;;;;;;9.87;3.60;;;;;;;;;;692479;28;1282;-63
2024/01/28 00:11:18;;;;;;;8.07;3.37;;;;;;;;;;693208;28;865;-63
2024/01/28 00:11:39;;;;;;;8.00;3.20;;;;;;;;;;691069;28;1280;-64
2024/01/28 00:12:00;;;;;;;7.22;3.08;;;;;;;;;;690217;28;955;-63
2024/01/28 00:12:20;;;;;;;8.07;3.28;;;;;;;;;;689576;28;901;-65
2024/01/28 00:12:40;;;;;;;10.27;3.57;;;;;;;;;;689686;28;922;-64
2024/01/28 00:13:01;;;;;;;9.93;3.28;;;;;;;;;;690484;28;856;-63
2024/01/28 00:13:24;;;;;;;7.40;3.07;;;;;;;;;;689630;28;4354;-64
2024/01/28 00:13:44;;;;;;;8.43;3.30;;;;;;;;;;687996;28;1528;-65
2024/01/28 00:14:05;;;;;;;7.57;3.10;;;;;;;;;;688909;28;873;-65
2024/01/28 00:14:26;;;;;;;9.17;3.40;;;;;;;;;;689943;28;738;-64
2024/01/28 00:14:46;;;;;;;8.30;3.30;;;;;;;;;;686508;28;1417;-64
2024/01/28 00:15:07;;;;;;;8.25;3.67;;;;;;;;;;688279;28;1207;-64
2024/01/28 00:15:27;;;;;;;7.47;3.10;;;;;;;;;;688641;28;816;-65
2024/01/28 00:15:49;;;;;;;7.83;3.10;;;;;;;;;;686995;28;1064;-64
2024/01/28 00:16:12;;;;;;;6.75;3.20;;;;;;;;;;686585;28;4412;-63
2024/01/28 00:16:33;;;;;;;8.25;3.35;;;;;;;;;;686357;28;1080;-64
2024/01/28 00:16:53;;;;;;;7.07;3.00;;;;;;;;;;687134;28;1059;-63
2024/01/28 00:17:14;;;;;;;7.03;3.10;;;;;;;;;;684929;28;1154;-64
2024/01/28 00:17:34;;;;;;;8.05;3.10;;;;;;;;;;684068;28;1019;-65
2024/01/28 00:17:57;;;;;;;8.67;3.07;;;;;;;;;;684430;28;1251;-62
2024/01/28 00:18:19;;;;;;;8.00;3.60;;;;;;;;;;686607;28;1907;-63
2024/01/28 00:18:39;;;;;;;8.63;3.28;;;;;;;;;;686541;28;1278;-64
2024/01/28 00:19:00;;;;;;;8.68;3.65;;;;;;;;;;688653;28;814;-65
2024/01/28 00:19:20;;;;;;;8.18;3.60;;;;;;;;;;689116;28;4271;-66
2024/01/28 00:19:41;;;;;;;8.17;3.20;;;;;;;;;;686985;28;1414;-67
2024/01/28 00:20:03;;;;;;;8.13;3.08;;;;;;;;;;688014;28;869;-64
2024/01/28 00:20:23;;;;;;;8.90;3.40;;;;;;;;;;687060;28;1347;-63
2024/01/28 00:20:44;;;;;;;6.83;3.07;;;;;;;;;;689686;28;1082;-65
2024/01/28 00:21:04;;;;;;;7.25;2.90;;;;;;;;;;690078;28;909;-63
2024/01/28 00:21:25;;;;;;;8.43;3.10;;;;;;;;;;690358;28;1402;-64
2024/01/28 00:21:45;;;;;;;9.02;3.22;;;;;;;;;;689518;28;857;-64
2024/01/28 00:22:06;;;;;;;8.20;3.67;;;;;;;;;;686901;28;4428;-65
2024/01/28 00:22:26;;;;;;;7.72;3.00;;;;;;;;;;687749;28;828;-63
2024/01/28 00:22:47;;;;;;;8.03;3.30;;;;;;;;;;686734;28;1111;-65
2024/01/28 00:23:07;;;;;;;8.23;3.25;;;;;;;;;;688022;28;841;-63
2024/01/28 00:23:27;;;;;;;9.13;3.53;;;;;;;;;;687546;28;719;-63
2024/01/28 00:23:48;;;;;;;9.90;3.60;;;;;;;;;;686852;28;1072;-63
2024/01/28 00:24:08;;;;;;;8.37;3.20;;;;;;;;;;687983;28;762;-63
2024/01/28 00:24:28;;;;;;;8.68;3.10;;;;;;;;;;687813;28;1105;-64
2024/01/28 00:24:50;;;;;;;8.97;3.20;;;;;;;;;;687282;28;1220;-63
2024/01/28 00:25:10;;;;;;;8.52;3.40;;;;;;;;;;684290;28;4405;-63
2024/01/28 00:25:31;;;;;;;10.03;3.60;;;;;;;;;;688663;28;1256;-64
2024/01/28 00:25:51;;;;;;;9.60;3.40;;;;;;;;;;686509;28;1172;-63
2024/01/28 00:26:12;;;;;;;7.20;3.10;;;;;;;;;;686969;28;1331;-65
2024/01/28 00:26:39;;;;;;;7.30;3.13;;;;;;;;;;687258;28;1306;-66
2024/01/28 00:26:59;;;;;;;7.05;2.92;;;;;;;;;;687899;28;1493;-63
2024/01/28 00:27:19;;;;;;;8.87;3.17;;;;;;;;;;686928;28;818;-63
2024/01/28 00:27:40;;;;;;;8.00;3.58;;;;;;;;;;679371;28;1287;-65
2024/01/28 00:28:00;;;;;;;8.07;3.23;;;;;;;;;;680623;29;748;-63
2024/01/28 00:28:21;;;;;;;10.82;3.53;;;;;;;;;;678120;28;4455;-63
2024/01/28 00:28:42;;;;;;;8.80;3.13;;;;;;;;;;677167;29;1303;-65
2024/01/28 00:29:02;;;;;;;9.83;3.33;;;;;;;;;;676095;29;1215;-66
2024/01/28 00:29:29;;;;;;;10.80;3.30;;;;;;;;;;680355;28;1463;-63
2024/01/28 00:29:49;;;;;;;11.85;3.33;;;;;;;;;;680809;28;1556;-63
2024/01/28 00:30:11;;;;;;;9.53;3.20;;;;;;;;;;682401;29;874;-64
2024/01/28 00:30:34;;;;;;;9.15;3.10;;;;;;;;;;682395;29;1009;-65
2024/01/28 00:30:55;;;;;;;9.65;3.35;;;;;;;;;;682679;28;1334;-63
2024/01/28 00:31:16;;;;;;;9.15;3.20;;;;;;;;;;686210;28;4364;-62
2024/01/28 00:31:36;;;;;;;7.65;2.95;;;;;;;;;;686641;28;1472;-64
2024/01/28 00:31:57;;;;;;;8.83;3.00;;;;;;;;;;687571;28;743;-63
2024/01/28 00:32:19;;;;;;;7.43;2.90;;;;;;;;;;687609;28;1035;-64
2024/01/28 00:32:41;;;;;;;8.10;3.08;;;;;;;;;;687054;28;1377;-64
2024/01/28 00:33:02;;;;;;;7.28;2.90;;;;;;;;;;688007;28;925;-64
2024/01/28 00:33:22;;;;;;;7.57;2.90;;;;;;;;;;687811;28;940;-64
2024/01/28 00:33:42;;;;;;;8.73;3.47;;;;;;;;;;687171;28;988;-69
2024/01/28 00:34:03;;;;;;;9.00;3.50;;;;;;;;;;687974;28;1374;-65
2024/01/28 00:34:24;;;;;;;8.23;2.90;;;;;;;;;;687594;28;4184;-64
2024/01/28 00:34:45;;;;;;;9.45;2.72;;;;;;;;;;686958;28;984;-64
2024/01/28 00:35:05;;;;;;;8.93;3.20;;;;;;;;;;687443;28;1233;-63
2024/01/28 00:35:26;;;;;;;7.53;3.20;;;;;;;;;;687884;28;779;-64
2024/01/28 00:35:46;;;;;;;8.50;3.20;;;;;;;;;;686608;28;1328;-66
2024/01/28 00:36:07;;;;;;;9.10;3.17;;;;;;;;;;687480;28;862;-66
2024/01/28 00:36:27;;;;;;;10.87;3.47;;;;;;;;;;687670;28;921;-64
2024/01/28 00:36:48;;;;;;;8.90;3.23;;;;;;;;;;686807;28;929;-63
2024/01/28 00:37:08;;;;;;;9.10;2.88;;;;;;;;;;687007;28;4489;-64
2024/01/28 00:37:29;;;;;;;9.77;3.10;;;;;;;;;;687735;28;1449;-63
2024/01/28 00:37:49;;;;;;;6.05;2.90;;;;;;;;;;686899;28;871;-65
2024/01/28 00:38:09;;;;;;;6.60;2.80;;;;;;;;;;687875;28;1910;-63
2024/01/28 00:38:31;;;;;;;8.90;3.35;;;;;;;;;;688060;28;919;-63
2024/01/28 00:38:52;;;;;;;7.88;3.03;;;;;;;;;;685891;28;3679;-64
2024/01/28 00:39:13;;;;;;;9.13;2.80;;;;;;;;;;685979;28;4803;-63
2024/01/28 00:39:35;;;;;;;8.73;2.83;;;;;;;;;;687115;28;1494;-63
2024/01/28 00:39:55;;;;;;;7.05;2.70;;;;;;;;;;688052;28;869;-63
2024/01/28 00:40:16;;;;;;;7.93;3.00;;;;;;;;;;686975;28;4324;-66
2024/01/28 00:40:36;;;;;;;9.07;3.10;;;;;;;;;;686558;28;2307;-64
2024/01/28 00:41:00;;;;;;;9.10;3.17;;;;;;;;;;687143;28;1263;-62
2024/01/28 00:41:21;;;;;;;7.97;2.92;;;;;;;;;;687610;28;1016;-63
2024/01/28 00:41:42;;;;;;;8.93;3.00;;;;;;;;;;685887;28;1754;-63
2024/01/28 00:42:04;;;;;;;8.30;2.88;;;;;;;;;;687876;28;849;-64
2024/01/28 00:42:24;;;;;;;7.57;2.92;;;;;;;;;;684654;28;1180;-64
2024/01/28 00:42:46;;;;;;;7.93;3.22;;;;;;;;;;684897;28;1755;-64
2024/01/28 00:43:07;;;;;;;7.57;2.93;;;;;;;;;;686956;28;4496;-62
2024/01/28 00:43:27;;;;;;;8.57;2.97;;;;;;;;;;687613;28;782;-62
2024/01/28 00:43:48;;;;;;;8.23;3.00;;;;;;;;;;686824;28;2375;-65
2024/01/28 00:44:09;;;;;;;8.65;3.15;;;;;;;;;;687952;28;1330;-64
2024/01/28 00:44:29;;;;;;;9.67;3.30;;;;;;;;;;687882;28;817;-62
2024/01/28 00:44:49;;;;;;;8.98;3.15;;;;;;;;;;686610;28;2338;-64
2024/01/28 00:45:10;;;;;;;8.00;3.20;;;;;;;;;;688254;28;821;-64
2024/01/28 00:45:31;;;;;;;7.18;3.00;;;;;;;;;;687656;28;941;-63
2024/01/28 00:45:51;;;;;;;7.60;3.30;;;;;;;;;;685614;28;2210;-63
2024/01/28 00:46:11;;;;;;;7.63;3.67;;;;;;;;;;687449;28;4409;-63
2024/01/28 00:46:32;;;;;;;10.30;3.43;;;;;;;;;;687668;28;883;-63
2024/01/28 00:46:54;;;;;;;10.48;2.95;;;;;;;;;;686589;28;1711;-65
2024/01/28 00:47:14;;;;;;;7.78;2.80;;;;;;;;;;687646;28;1353;-64
2024/01/28 00:47:35;;;;;;;8.63;3.10;;;;;;;;;;686651;28;1516;-64
2024/01/28 00:47:55;;;;;;;8.67;3.20;;;;;;;;;;688227;28;786;-64
2024/01/28 00:48:16;;;;;;;6.17;3.03;;;;;;;;;;688081;28;817;-65
2024/01/28 00:48:36;;;;;;;7.27;3.00;;;;;;;;;;686644;28;2513;-64
2024/01/28 00:48:57;;;;;;;8.07;3.40;;;;;;;;;;687671;28;1136;-65
2024/01/28 00:49:17;;;;;;;9.27;3.72;;;;;;;;;;686389;28;4416;-65
2024/01/28 00:49:37;;;;;;;9.73;2.90;;;;;;;;;;686779;28;2749;-65
2024/01/28 00:49:58;;;;;;;9.87;3.30;;;;;;;;;;687806;28;877;-63
2024/01/28 00:50:20;;;;;;;9.07;3.30;;;;;;;;;;687925;28;897;-63
2024/01/28 00:50:40;;;;;;;9.18;3.15;;;;;;;;;;683465;28;1450;-64
2024/01/28 00:51:00;;;;;;;8.10;3.00;;;;;;;;;;684828;28;1448;-64
2024/01/28 00:51:21;;;;;;;8.67;3.07;;;;;;;;;;687638;28;967;-64
2024/01/28 00:51:41;;;;;;;8.63;3.17;;;;;;;;;;686594;28;1862;-65
2024/01/28 00:52:02;;;;;;;9.67;3.10;;;;;;;;;;687741;28;1153;-63
2024/01/28 00:52:22;;;;;;;9.43;3.00;;;;;;;;;;687000;28;4385;-65
2024/01/28 00:52:44;;;;;;;8.30;3.00;;;;;;;;;;686355;28;1881;-64
2024/01/28 00:53:04;;;;;;;6.85;2.83;;;;;;;;;;687316;28;5256;-63
2024/01/28 00:53:25;;;;;;;8.27;2.83;;;;;;;;;;687843;28;790;-64
2024/01/28 00:53:45;;;;;;;9.67;3.20;;;;;;;;;;686508;28;2253;-65
2024/01/28 00:54:05;;;;;;;6.93;3.10;;;;;;;;;;687525;28;870;-63
2024/01/28 00:54:26;;;;;;;7.10;3.00;;;;;;;;;;687653;28;1282;-63
2024/01/28 00:54:46;;;;;;;6.78;2.97;;;;;;;;;;686708;28;1683;-65
2024/01/28 00:55:08;;;;;;;8.93;3.30;;;;;;;;;;686981;28;4364;-63
2024/01/28 00:55:29;;;;;;;8.65;3.28;;;;;;;;;;685516;28;1422;-64
2024/01/28 00:55:49;;;;;;;8.70;3.20;;;;;;;;;;684461;28;2241;-65
2024/01/28 00:56:09;;;;;;;8.80;3.22;;;;;;;;;;687776;28;1452;-65
2024/01/28 00:56:30;;;;;;;10.37;3.23;;;;;;;;;;685056;28;1288;-64
2024/01/28 00:56:52;;;;;;;8.88;2.92;;;;;;;;;;682664;28;1174;-64
2024/01/28 00:57:12;;;;;;;8.70;3.03;;;;;;;;;;683784;28;987;-64
2024/01/28 00:57:33;;;;;;;7.47;3.15;;;;;;;;;;683203;28;799;-64
2024/01/28 00:57:54;;;;;;;7.27;3.30;;;;;;;;;;683629;28;2255;-64
2024/01/28 00:58:14;;;;;;;8.27;3.17;;;;;;;;;;683874;28;4361;-64
2024/01/28 00:58:34;;;;;;;8.63;3.13;;;;;;;;;;684606;28;2423;-65
2024/01/28 00:58:55;;;;;;;8.32;3.35;;;;;;;;;;687976;28;802;-63
2024/01/28 00:59:15;;;;;;;9.93;2.83;;;;;;;;;;687562;28;1202;-65
2024/01/28 00:59:36;;;;;;;8.15;2.78;;;;;;;;;;686267;28;1865;-64
2024/01/28 00:59:56;;;;;;;6.47;2.60;;;;;;;;;;687851;28;833;-63
2024/01/28 01:00:17;;;;;;;7.15;2.78;;;;;;;;;;687579;28;1334;-64
2024/01/28 01:00:40;;;;;;;8.13;2.77;;;;;;;;;;687174;28;966;-63
2024/01/28 01:01:01;;;;;;;7.72;2.90;;;;;;;;;;687082;28;971;-64
2024/01/28 01:01:21;;;;;;;7.68;2.80;;;;;;;;;;686870;28;4350;-63
2024/01/28 01:01:42;;;;;;;8.43;3.30;;;;;;;;;;686853;28;1164;-62
2024/01/28 01:02:02;;;;;;;8.68;3.15;;;;;;;;;;688061;28;833;-64
2024/01/28 01:02:22;;;;;;;8.80;2.80;;;;;;;;;;687516;28;850;-63
2024/01/28 01:02:43;;;;;;;8.75;2.92;;;;;;;;;;686963;28;2324;-64
2024/01/28 01:03:04;;;;;;;9.93;2.93;;;;;;;;;;688084;28;885;-63
2024/01/28 01:03:24;;;;;;;8.02;2.60;;;;;;;;;;687456;28;1263;-62
2024/01/28 01:03:45;;;;;;;8.40;3.20;;;;;;;;;;686386;28;1862;-63
2024/01/28 01:04:05;;;;;;;9.43;3.23;;;;;;;;;;687050;28;4756;-63
2024/01/28 01:04:26;;;;;;;7.43;2.83;;;;;;;;;;687668;28;1543;-63
2024/01/28 01:04:46;;;;;;;7.83;2.80;;;;;;;;;;686365;28;1733;-64
2024/01/28 01:05:06;;;;;;;9.90;2.97;;;;;;;;;;687777;28;1385;-64
2024/01/28 01:05:27;;;;;;;7.87;2.80;;;;;;;;;;687949;28;900;-63
2024/01/28 01:05:47;;;;;;;6.68;2.80;;;;;;;;;;686382;28;1505;-64
2024/01/28 01:06:08;;;;;;;10.27;2.87;;;;;;;;;;687960;28;1222;-63
2024/01/28 01:06:28;;;;;;;9.57;3.17;;;;;;;;;;687296;28;1279;-65
2024/01/28 01:06:49;;;;;;;9.33;3.17;;;;;;;;;;686226;28;1091;-65
2024/01/28 01:07:10;;;;;;;7.50;2.90;;;;;;;;;;686607;28;4348;-64
2024/01/28 01:07:30;;;;;;;8.20;3.10;;;;;;;;;;687517;28;881;-64
2024/01/28 01:07:50;;;;;;;8.70;3.00;;;;;;;;;;686114;28;1977;-66
2024/01/28 01:08:11;;;;;;;7.57;2.80;;;;;;;;;;690366;28;1270;-63
2024/01/28 01:08:32;;;;;;;8.30;3.10;;;;;;;;;;689961;28;932;-62
2024/01/28 01:08:52;;;;;;;9.35;3.30;;;;;;;;;;689444;28;2413;-66
2024/01/28 01:09:13;;;;;;;8.95;3.10;;;;;;;;;;690284;28;941;-64
2024/01/28 01:09:35;;;;;;;8.80;2.90;;;;;;;;;;690370;28;856;-64
2024/01/28 01:09:56;;;;;;;9.25;3.00;;;;;;;;;;689129;28;1179;-63
2024/01/28 01:10:16;;;;;;;9.10;3.13;;;;;;;;;;687513;28;4284;-63
2024/01/28 01:10:37;;;;;;;9.02;3.05;;;;;;;;;;686738;28;1842;-64
2024/01/28 01:10:58;;;;;;;8.07;3.10;;;;;;;;;;687285;28;893;-63
2024/01/28 01:11:18;;;;;;;7.97;2.88;;;;;;;;;;687458;28;963;-63
2024/01/28 01:11:42;;;;;;;9.57;2.90;;;;;;;;;;686461;28;1912;-67
2024/01/28 01:12:04;;;;;;;9.68;3.28;;;;;;;;;;685640;28;1290;-64
2024/01/28 01:12:25;;;;;;;7.40;3.08;;;;;;;;;;687255;28;992;-63
2024/01/28 01:12:45;;;;;;;9.45;3.13;;;;;;;;;;686742;28;1477;-65
2024/01/28 01:13:05;;;;;;;10.40;3.37;;;;;;;;;;687065;28;4643;-62
2024/01/28 01:13:26;;;;;;;9.73;2.95;;;;;;;;;;687805;28;932;-65
2024/01/28 01:13:46;;;;;;;8.73;2.83;;;;;;;;;;686795;28;1702;-64
2024/01/28 01:14:07;;;;;;;8.00;2.80;;;;;;;;;;687051;28;841;-66
2024/01/28 01:14:27;;;;;;;6.13;2.67;;;;;;;;;;687865;28;782;-65
2024/01/28 01:14:48;;;;;;;6.13;2.75;;;;;;;;;;686307;28;1100;-64
2024/01/28 01:15:08;;;;;;;7.57;2.73;;;;;;;;;;687627;28;925;-63
2024/01/28 01:15:29;;;;;;;7.22;2.72;;;;;;;;;;687941;28;810;-62
2024/01/28 01:15:50;;;;;;;7.22;2.80;;;;;;;;;;687023;28;1776;-63
2024/01/28 01:16:10;;;;;;;7.53;2.78;;;;;;;;;;686692;28;4420;-62
2024/01/28 01:16:30;;;;;;;8.23;3.00;;;;;;;;;;687924;28;1345;-63
2024/01/28 01:16:51;;;;;;;6.67;2.90;;;;;;;;;;686791;28;2292;-65
2024/01/28 01:17:11;;;;;;;8.43;2.95;;;;;;;;;;687871;28;893;-63
2024/01/28 01:17:32;;;;;;;8.40;2.87;;;;;;;;;;687991;28;860;-63
2024/01/28 01:17:52;;;;;;;6.80;2.55;;;;;;;;;;688590;28;1776;-64
2024/01/28 01:18:12;;;;;;;8.63;2.87;;;;;;;;;;688756;28;1916;-64
2024/01/28 01:18:33;;;;;;;9.13;2.80;;;;;;;;;;689321;28;1109;-65
2024/01/28 01:18:53;;;;;;;9.50;3.13;;;;;;;;;;685912;28;1167;-64
2024/01/28 01:19:14;;;;;;;8.23;2.80;;;;;;;;;;685118;28;4380;-63
2024/01/28 01:19:34;;;;;;;8.17;3.07;;;;;;;;;;686200;28;1292;-62
2024/01/28 01:19:55;;;;;;;7.68;2.97;;;;;;;;;;686903;28;2354;-63
2024/01/28 01:20:17;;;;;;;6.70;2.67;;;;;;;;;;687163;28;1008;-63
2024/01/28 01:20:38;;;;;;;6.75;2.53;;;;;;;;;;687110;28;1743;-63
2024/01/28 01:20:58;;;;;;;8.35;2.60;;;;;;;;;;690178;28;851;-64
2024/01/28 01:21:19;;;;;;;7.93;2.60;;;;;;;;;;687360;28;1310;-65
2024/01/28 01:21:39;;;;;;;8.00;2.72;;;;;;;;;;686167;28;6786;-66
2024/01/28 01:22:02;;;;;;;8.90;2.80;;;;;;;;;;684956;28;1628;-64
2024/01/28 01:22:22;;;;;;;8.80;2.90;;;;;;;;;;683761;28;4295;-66
2024/01/28 01:22:44;;;;;;;9.00;3.00;;;;;;;;;;684055;28;1913;-64
2024/01/28 01:23:04;;;;;;;8.70;3.30;;;;;;;;;;684887;28;1210;-63
2024/01/28 01:23:25;;;;;;;7.47;3.10;;;;;;;;;;685713;28;790;-64
2024/01/28 01:23:45;;;;;;;6.57;3.00;;;;;;;;;;686891;28;2321;-63
2024/01/28 01:24:06;;;;;;;8.02;2.90;;;;;;;;;;687702;28;924;-62
2024/01/28 01:24:26;;;;;;;8.93;2.70;;;;;;;;;;687229;28;1333;-63
2024/01/28 01:24:46;;;;;;;8.70;2.70;;;;;;;;;;686908;28;2500;-61
2024/01/28 01:25:07;;;;;;;7.80;3.13;;;;;;;;;;687174;28;4485;-62
2024/01/28 01:25:27;;;;;;;7.53;3.08;;;;;;;;;;687142;28;1079;-64
2024/01/28 01:25:48;;;;;;;6.90;2.40;;;;;;;;;;686837;28;2422;-63
2024/01/28 01:26:09;;;;;;;7.40;2.55;;;;;;;;;;687563;28;1408;-64
2024/01/28 01:26:29;;;;;;;8.85;2.75;;;;;;;;;;687406;28;932;-64
2024/01/28 01:26:50;;;;;;;6.77;2.50;;;;;;;;;;686726;28;1241;-64
2024/01/28 01:27:11;;;;;;;6.30;2.60;;;;;;;;;;684904;28;1834;-64
2024/01/28 01:27:31;;;;;;;7.97;2.70;;;;;;;;;;684925;28;916;-64
2024/01/28 01:27:55;;;;;;;7.38;2.90;;;;;;;;;;684079;28;2289;-63
2024/01/28 01:28:15;;;;;;;8.68;2.55;;;;;;;;;;686865;28;4252;-63
2024/01/28 01:28:36;;;;;;;12.33;3.10;;;;;;;;;;687370;28;720;-64
2024/01/28 01:28:56;;;;;;;8.32;2.55;;;;;;;;;;687325;28;1353;-62
2024/01/28 01:29:17;;;;;;;6.25;2.47;;;;;;;;;;688112;28;1112;-64
2024/01/28 01:29:37;;;;;;;6.73;2.53;;;;;;;;;;686580;28;1928;-63
2024/01/28 01:29:58;;;;;;;8.27;2.90;;;;;;;;;;688005;28;786;-64
2024/01/28 01:30:18;;;;;;;8.40;2.93;;;;;;;;;;687726;28;825;-64
2024/01/28 01:30:39;;;;;;;7.93;2.92;;;;;;;;;;685749;28;1734;-65
2024/01/28 01:31:01;;;;;;;8.82;2.97;;;;;;;;;;687148;28;1313;-65
2024/01/28 01:31:21;;;;;;;7.40;2.88;;;;;;;;;;687276;28;4364;-64
2024/01/28 01:31:42;;;;;;;8.83;3.10;;;;;;;;;;685459;28;1919;-64
2024/01/28 01:32:02;;;;;;;8.23;3.00;;;;;;;;;;687759;28;929;-63
2024/01/28 01:32:23;;;;;;;7.60;2.90;;;;;;;;;;687854;28;1856;-63
2024/01/28 01:32:43;;;;;;;8.77;3.00;;;;;;;;;;686460;28;1465;-64
2024/01/28 01:33:03;;;;;;;9.47;2.97;;;;;;;;;;687213;28;819;-63
2024/01/28 01:33:25;;;;;;;7.80;3.15;;;;;;;;;;687735;28;904;-63
2024/01/28 01:33:45;;;;;;;8.38;3.45;;;;;;;;;;686564;28;1047;-65
2024/01/28 01:34:05;;;;;;;8.40;3.03;;;;;;;;;;686856;28;4457;-64
2024/01/28 01:34:27;;;;;;;7.63;2.90;;;;;;;;;;687737;28;833;-64
2024/01/28 01:34:47;;;;;;;8.30;2.88;;;;;;;;;;686359;28;1906;-65
2024/01/28 01:35:08;;;;;;;8.57;2.70;;;;;;;;;;687351;28;3673;-61
2024/01/28 01:35:28;;;;;;;8.43;2.67;;;;;;;;;;687524;28;5201;-63
2024/01/28 01:35:49;;;;;;;8.20;2.70;;;;;;;;;;686489;28;2530;-63
2024/01/28 01:36:09;;;;;;;8.25;2.70;;;;;;;;;;687579;28;834;-64
2024/01/28 01:36:30;;;;;;;8.57;2.83;;;;;;;;;;687778;28;829;-64
2024/01/28 01:36:51;;;;;;;8.43;2.80;;;;;;;;;;686514;28;2361;-64
2024/01/28 01:37:11;;;;;;;7.07;2.65;;;;;;;;;;686499;28;4369;-63
2024/01/28 01:37:31;;;;;;;6.33;2.50;;;;;;;;;;687880;28;1340;-62
2024/01/28 01:37:54;;;;;;;6.97;2.67;;;;;;;;;;686677;28;1569;-63
2024/01/28 01:38:15;;;;;;;9.05;2.80;;;;;;;;;;687716;28;1918;-63
2024/01/28 01:38:35;;;;;;;6.37;2.53;;;;;;;;;;687775;28;964;-62
2024/01/28 01:38:56;;;;;;;7.70;2.67;;;;;;;;;;685838;28;1761;-62
2024/01/28 01:39:16;;;;;;;7.72;3.00;;;;;;;;;;687294;28;1217;-64
2024/01/28 01:39:37;;;;;;;7.07;2.87;;;;;;;;;;684977;28;1470;-63
2024/01/28 01:39:57;;;;;;;7.53;2.60;;;;;;;;;;686527;28;932;-62
2024/01/28 01:40:17;;;;;;;7.18;2.55;;;;;;;;;;685910;28;4922;-62
2024/01/28 01:40:37;;;;;;;6.30;2.63;;;;;;;;;;686733;28;1238;-64
2024/01/28 01:40:58;;;;;;;7.03;2.67;;;;;;;;;;688237;28;921;-64
2024/01/28 01:41:19;;;;;;;6.10;2.40;;;;;;;;;;688916;28;822;-63
2024/01/28 01:41:39;;;;;;;8.33;2.80;;;;;;;;;;686580;28;1605;-63
2024/01/28 01:41:59;;;;;;;8.43;3.08;;;;;;;;;;688040;28;972;-63
2024/01/28 01:42:19;;;;;;;8.27;2.80;;;;;;;;;;687434;28;1314;-63
2024/01/28 01:42:42;;;;;;;8.27;2.70;;;;;;;;;;686493;28;1761;-62
2024/01/28 01:43:08;;;;;;;6.63;2.40;;;;;;;;;;687690;28;918;-64
2024/01/28 01:43:32;;;;;;;8.27;2.60;;;;;;;;;;686726;28;4761;-63
2024/01/28 01:43:53;;;;;;;9.02;2.70;;;;;;;;;;686339;28;2293;-63
2024/01/28 01:44:13;;;;;;;8.23;2.60;;;;;;;;;;687748;28;1141;-63
2024/01/28 01:44:34;;;;;;;8.63;2.83;;;;;;;;;;687541;28;952;-62
2024/01/28 01:44:54;;;;;;;10.20;2.70;;;;;;;;;;686495;28;1761;-62
2024/01/28 01:45:15;;;;;;;9.60;2.78;;;;;;;;;;687544;28;905;-63
2024/01/28 01:45:39;;;;;;;6.50;2.80;;;;;;;;;;687714;28;1397;-63
2024/01/28 01:45:59;;;;;;;8.82;2.67;;;;;;;;;;687565;28;956;-62
2024/01/28 01:46:21;;;;;;;9.33;2.97;;;;;;;;;;687511;28;4407;-63
2024/01/28 01:46:44;;;;;;;8.75;2.75;;;;;;;;;;686678;28;1040;-62
2024/01/28 01:47:05;;;;;;;7.15;2.50;;;;;;;;;;690326;28;1172;-62
2024/01/28 01:47:26;;;;;;;9.15;2.67;;;;;;;;;;689729;28;1031;-63
2024/01/28 01:47:46;;;;;;;7.43;3.03;;;;;;;;;;689117;28;1860;-63
2024/01/28 01:48:09;;;;;;;8.63;2.97;;;;;;;;;;690330;28;838;-63
2024/01/28 01:48:29;;;;;;;8.68;2.60;;;;;;;;;;689599;28;956;-62
2024/01/28 01:48:50;;;;;;;6.95;2.50;;;;;;;;;;689897;28;1425;-63
2024/01/28 01:49:11;;;;;;;7.27;2.33;;;;;;;;;;686528;28;4613;-63
2024/01/28 01:49:32;;;;;;;6.32;2.42;;;;;;;;;;686413;28;822;-64
2024/01/28 01:49:52;;;;;;;8.10;2.70;;;;;;;;;;681002;29;1813;-62
2024/01/28 01:50:13;;;;;;;7.43;2.60;;;;;;;;;;682393;28;1240;-63
2024/01/28 01:50:33;;;;;;;7.57;2.80;;;;;;;;;;682522;28;1034;-63
2024/01/28 01:50:54;;;;;;;7.55;2.78;;;;;;;;;;683283;28;1774;-63
2024/01/28 01:51:14;;;;;;;7.77;2.40;;;;;;;;;;687790;28;908;-62
2024/01/28 01:51:34;;;;;;;7.38;2.45;;;;;;;;;;687023;28;1024;-63
2024/01/28 01:51:55;;;;;;;6.93;2.40;;;;;;;;;;688543;28;1829;-63
2024/01/28 01:52:16;;;;;;;6.97;2.30;;;;;;;;;;689744;28;4348;-63
2024/01/28 01:52:43;;;;;;;6.85;2.40;;;;;;;;;;690085;28;1455;-63
2024/01/28 01:53:04;;;;;;;6.93;2.30;;;;;;;;;;688170;28;1143;-63
2024/01/28 01:53:24;;;;;;;6.78;2.40;;;;;;;;;;687713;28;1247;-63
2024/01/28 01:53:44;;;;;;;5.93;2.60;;;;;;;;;;685698;28;2515;-63
2024/01/28 01:54:06;;;;;;;6.77;2.40;;;;;;;;;;687627;28;913;-62
2024/01/28 01:54:26;;;;;;;6.65;2.30;;;;;;;;;;687538;28;1325;-63
2024/01/28 01:54:47;;;;;;;7.80;2.47;;;;;;;;;;685977;28;2307;-63
2024/01/28 01:55:08;;;;;;;7.65;2.50;;;;;;;;;;687009;28;4735;-62
2024/01/28 01:55:28;;;;;;;6.13;2.38;;;;;;;;;;687771;28;904;-63
2024/01/28 01:55:49;;;;;;;9.37;2.80;;;;;;;;;;685965;28;2380;-63
2024/01/28 01:56:09;;;;;;;7.80;2.63;;;;;;;;;;687560;28;1566;-63
2024/01/28 01:56:31;;;;;;;6.70;2.50;;;;;;;;;;687608;28;774;-63
2024/01/28 01:56:51;;;;;;;5.88;2.40;;;;;;;;;;685811;28;1850;-64
2024/01/28 01:57:11;;;;;;;5.73;2.43;;;;;;;;;;687614;28;810;-63
2024/01/28 01:57:32;;;;;;;6.60;2.60;;;;;;;;;;687640;28;837;-64
2024/01/28 01:57:53;;;;;;;7.97;2.70;;;;;;;;;;688686;28;1534;-63
2024/01/28 01:58:13;;;;;;;7.18;2.90;;;;;;;;;;689390;28;6437;-63
2024/01/28 01:58:34;;;;;;;7.23;2.57;;;;;;;;;;690327;28;940;-63
2024/01/28 01:58:55;;;;;;;6.88;2.63;;;;;;;;;;688674;28;2516;-65
2024/01/28 01:59:15;;;;;;;6.93;2.60;;;;;;;;;;687313;28;932;-64
2024/01/28 01:59:37;;;;;;;7.93;2.70;;;;;;;;;;687470;28;1195;-63
2024/01/28 01:59:57;;;;;;;5.53;2.47;;;;;;;;;;685883;28;2456;-63
2024/01/28 02:00:18;;;;;;;5.97;2.60;;;;;;;;;;687474;28;936;-63
2024/01/28 02:00:38;;;;;;;6.63;2.57;;;;;;;;;;690299;28;1425;-64
2024/01/28 02:01:02;;;;;;;5.75;2.45;;;;;;;;;;688128;28;1367;-63
2024/01/28 02:01:22;;;;;;;6.38;2.30;;;;;;;;;;690312;28;4534;-64
2024/01/28 02:01:42;;;;;;;7.40;2.30;;;;;;;;;;691083;28;1546;-63
2024/01/28 02:02:05;;;;;;;7.00;2.40;;;;;;;;;;691938;28;1096;-64
2024/01/28 02:02:26;;;;;;;6.43;2.30;;;;;;;;;;691288;28;940;-63
2024/01/28 02:02:46;;;;;;;6.35;2.42;;;;;;;;;;686744;28;2298;-63
2024/01/28 02:03:06;;;;;;;7.00;2.60;;;;;;;;;;687508;28;1350;-65
2024/01/28 02:03:28;;;;;;;7.43;2.45;;;;;;;;;;687342;28;933;-64
2024/01/28 02:03:49;;;;;;;6.78;2.55;;;;;;;;;;686496;28;1727;-64
2024/01/28 02:04:09;;;;;;;6.25;2.40;;;;;;;;;;684017;28;4580;-64
2024/01/28 02:04:29;;;;;;;6.43;2.67;;;;;;;;;;684894;28;1016;-63
2024/01/28 02:04:50;;;;;;;7.10;3.00;;;;;;;;;;683562;28;1481;-62
2024/01/28 02:05:11;;;;;;;6.22;2.38;;;;;;;;;;687665;28;984;-63
2024/01/28 02:05:31;;;;;;;5.43;2.40;;;;;;;;;;687448;28;877;-63
2024/01/28 02:05:51;;;;;;;6.87;2.60;;;;;;;;;;686319;28;1803;-64
2024/01/28 02:06:13;;;;;;;7.17;2.50;;;;;;;;;;686996;28;1580;-63
2024/01/28 02:06:33;;;;;;;7.90;2.60;;;;;;;;;;686280;28;843;-63
2024/01/28 02:06:53;;;;;;;9.93;2.70;;;;;;;;;;686621;28;1752;-62
2024/01/28 02:07:13;;;;;;;8.23;2.43;;;;;;;;;;687133;28;4569;-62
2024/01/28 02:07:34;;;;;;;7.10;2.50;;;;;;;;;;687270;28;774;-63
2024/01/28 02:07:54;;;;;;;7.82;2.60;;;;;;;;;;686286;28;1755;-63
2024/01/28 02:08:14;;;;;;;7.27;2.53;;;;;;;;;;689913;28;917;-64
2024/01/28 02:08:34;;;;;;;7.07;2.40;;;;;;;;;;689960;28;1632;-62
2024/01/28 02:08:55;;;;;;;6.28;2.45;;;;;;;;;;688621;28;1747;-63
2024/01/28 02:09:15;;;;;;;7.80;2.50;;;;;;;;;;693017;28;913;-63